Time;durP1;ratioP1;P1;durP2;ratioP2;P2;SDS_P1;SDS_P2;PMS_P1;PMS_P2;Temp;Humidity;BMP_temperature;BMP_pressure;BME280_temperature;BME280_humidity;BME280_pressure;Samples;Min_cycle;Max_cycle;Signal;HPM_P1;HPM_P2
2023/07/06 00:00:51;;;;;;;4.82;4.20;;;21.40;59.70;;;;;;4806543;29;20158;-85
2023/07/06 00:03:18;;;;;;;5.00;4.50;;;21.40;59.70;;;;;;4807484;29;20182;-85
2023/07/06 00:05:48;;;;;;;5.30;4.47;;;21.40;59.70;;;;;;4807199;29;20616;-86
2023/07/06 00:08:16;;;;;;;5.00;4.32;;;21.50;59.70;;;;;;4806592;29;20194;-85
2023/07/06 00:10:44;;;;;;;5.00;4.50;;;21.40;59.70;;;;;;4791995;29;20574;-85
2023/07/06 00:13:11;;;;;;;4.80;4.30;;;21.40;59.80;;;;;;4792098;29;20181;-86
2023/07/06 00:15:37;;;;;;;4.97;4.47;;;21.40;59.60;;;;;;4792361;29;20175;-85
2023/07/06 00:18:08;;;;;;;5.38;4.38;;;21.40;59.70;;;;;;4807226;29;20161;-85
2023/07/06 00:20:37;;;;;;;5.55;4.63;;;21.50;59.70;;;;;;4791479;29;20190;-84
2023/07/06 00:23:04;;;;;;;4.85;4.25;;;21.40;59.70;;;;;;4791718;29;20337;-86
2023/07/06 00:25:30;;;;;;;5.30;4.43;;;21.40;59.70;;;;;;4791839;29;20189;-85
2023/07/06 00:27:58;;;;;;;5.00;4.20;;;21.40;59.70;;;;;;4807018;29;20155;-86
2023/07/06 00:30:40;;;;;;;5.38;4.78;;;21.40;59.70;;;;;;4806792;29;20209;-86
2023/07/06 00:33:11;;;;;;;5.15;4.32;;;21.40;60.50;;;;;;4807156;29;20154;-86
2023/07/06 00:35:40;;;;;;;5.45;4.78;;;21.40;59.80;;;;;;4806232;29;20191;-85
2023/07/06 00:38:14;;;;;;;6.15;4.63;;;21.40;59.80;;;;;;4806814;29;20183;-85
2023/07/06 00:40:45;;;;;;;4.72;4.20;;;21.40;59.80;;;;;;4791574;29;20197;-85
2023/07/06 00:43:17;;;;;;;5.03;4.50;;;21.50;59.80;;;;;;4807448;29;20178;-85
2023/07/06 00:45:44;;;;;;;5.07;4.57;;;21.40;59.80;;;;;;4790953;29;20202;-85
2023/07/06 00:48:32;;;;;;;4.65;4.18;;;21.40;59.80;;;;;;4791682;29;20206;-85
2023/07/06 00:51:04;;;;;;;5.13;4.57;;;21.40;59.80;;;;;;4807518;29;20202;-85
2023/07/06 00:53:33;;;;;;;5.68;4.47;;;21.50;59.80;;;;;;4811845;29;20168;-86
2023/07/06 00:55:59;;;;;;;5.28;4.40;;;21.50;59.80;;;;;;4810648;29;20163;-86
2023/07/06 00:58:34;;;;;;;4.80;4.30;;;21.40;59.80;;;;;;4810485;29;20158;-86
2023/07/06 01:01:02;;;;;;;4.80;4.25;;;21.40;59.80;;;;;;4810346;29;20535;-87
2023/07/06 01:03:34;;;;;;;5.38;4.30;;;21.40;59.80;;;;;;4795513;29;20265;-86
2023/07/06 01:06:01;;;;;;;5.03;4.30;;;21.40;59.80;;;;;;4809772;29;20197;-85
2023/07/06 01:08:27;;;;;;;5.57;4.97;;;21.40;59.80;;;;;;4795424;29;20190;-86
2023/07/06 01:10:59;;;;;;;5.57;4.50;;;21.40;59.80;;;;;;4795109;29;20207;-85
2023/07/06 01:13:25;;;;;;;5.05;4.40;;;21.40;59.80;;;;;;4810049;29;20186;-85
2023/07/06 01:16:20;;;;;;;4.63;4.13;;;21.40;59.90;;;;;;4795922;29;20199;-86
2023/07/06 01:19:20;;;;;;;5.30;4.45;;;21.40;59.90;;;;;;4809870;29;20193;-86
2023/07/06 01:22:12;;;;;;;5.20;4.40;;;21.40;59.90;;;;;;4810695;29;20159;-86
2023/07/06 01:25:00;;;;;;;4.90;4.40;;;21.30;59.80;;;;;;4811623;29;20183;-85
2023/07/06 01:27:40;;;;;;;4.90;4.40;;;21.40;59.90;;;;;;4811605;29;20719;-87
2023/07/06 01:30:24;;;;;;;4.63;3.97;;;21.30;59.90;;;;;;4810088;29;20202;-86
2023/07/06 01:32:55;;;;;;;5.05;4.22;;;21.40;59.90;;;;;;4809504;29;20186;-86
2023/07/06 01:35:47;;;;;;;4.53;3.95;;;21.30;59.90;;;;;;4810278;29;20171;-86
2023/07/06 01:38:13;;;;;;;4.40;4.00;;;21.40;59.90;;;;;;4810205;29;20217;-86
2023/07/06 01:40:40;;;;;;;4.30;3.90;;;21.40;60.00;;;;;;4794943;29;20702;-86
2023/07/06 01:43:06;;;;;;;5.05;4.32;;;21.30;60.00;;;;;;4810151;29;20190;-86
2023/07/06 01:45:33;;;;;;;4.60;3.97;;;21.40;59.90;;;;;;4810256;29;20198;-86
2023/07/06 01:48:03;;;;;;;4.70;4.10;;;21.30;59.90;;;;;;4795116;29;20183;-86
2023/07/06 01:50:59;;;;;;;4.97;4.40;;;21.40;60.00;;;;;;4809979;29;20200;-87
2023/07/06 01:53:52;;;;;;;5.28;4.40;;;21.40;60.00;;;;;;4795252;29;20192;-86
2023/07/06 01:56:28;;;;;;;5.30;4.50;;;21.30;59.90;;;;;;4797221;29;20203;-86
2023/07/06 01:59:00;;;;;;;5.07;4.22;;;21.30;59.90;;;;;;4793947;29;20535;-86
2023/07/06 02:01:39;;;;;;;4.80;4.28;;;21.30;60.00;;;;;;4810376;29;20169;-86
2023/07/06 02:04:10;;;;;;;5.25;4.53;;;21.30;60.10;;;;;;4794793;29;20199;-87
2023/07/06 02:06:40;;;;;;;5.07;4.20;;;21.30;60.00;;;;;;4809571;29;20195;-86
2023/07/06 02:09:06;;;;;;;4.72;4.05;;;21.30;60.00;;;;;;4809687;29;20191;-87
2023/07/06 02:11:34;;;;;;;4.65;4.05;;;21.30;60.10;;;;;;4811203;29;20182;-85
2023/07/06 02:14:00;;;;;;;5.10;4.43;;;21.30;60.10;;;;;;4811104;29;20250;-86
2023/07/06 02:16:26;;;;;;;5.40;4.60;;;21.30;60.10;;;;;;4810202;29;20197;-85
2023/07/06 02:18:53;;;;;;;5.22;4.20;;;21.30;60.10;;;;;;4795122;29;20626;-84
2023/07/06 02:21:23;;;;;;;5.20;4.28;;;21.30;60.10;;;;;;4809886;29;20190;-85
2023/07/06 02:23:52;;;;;;;5.38;4.43;;;21.30;60.20;;;;;;4793925;29;20230;-85
2023/07/06 02:26:18;;;;;;;5.85;4.25;;;21.30;60.30;;;;;;4809133;29;20580;-86
2023/07/06 02:28:44;;;;;;;5.05;4.53;;;21.30;60.30;;;;;;4810502;29;20178;-85
2023/07/06 02:31:15;;;;;;;5.25;4.45;;;21.30;60.20;;;;;;4809486;29;20566;-85
2023/07/06 02:33:41;;;;;;;4.28;3.85;;;21.30;60.10;;;;;;4809030;29;20193;-85
2023/07/06 02:36:11;;;;;;;5.07;4.35;;;21.30;60.10;;;;;;4809743;29;20198;-85
2023/07/06 02:38:42;;;;;;;5.32;4.53;;;21.30;60.20;;;;;;4809091;29;20238;-86
2023/07/06 02:41:07;;;;;;;4.60;4.05;;;21.30;60.20;;;;;;4808783;29;20719;-84
2023/07/06 02:43:38;;;;;;;4.97;4.35;;;21.30;60.30;;;;;;4809729;29;20222;-86
2023/07/06 02:46:04;;;;;;;4.68;4.13;;;21.30;60.20;;;;;;4797388;29;20198;-86
2023/07/06 02:48:34;;;;;;;5.63;4.63;;;21.30;60.20;;;;;;4817503;29;20186;-86
2023/07/06 02:51:06;;;;;;;5.68;4.47;;;21.30;60.10;;;;;;4816082;29;20307;-86
2023/07/06 02:53:32;;;;;;;4.82;4.32;;;21.30;60.00;;;;;;4800069;29;20599;-85
2023/07/06 02:55:58;;;;;;;5.03;4.35;;;21.40;60.00;;;;;;4801330;29;20240;-86
2023/07/06 02:58:24;;;;;;;4.93;4.20;;;21.30;59.90;;;;;;4816793;29;20196;-87
2023/07/06 03:00:55;;;;;;;5.30;4.53;;;21.30;60.00;;;;;;4816224;29;20175;-87
2023/07/06 03:03:27;;;;;;;4.57;3.88;;;21.30;60.00;;;;;;4815662;29;20191;-87
2023/07/06 03:05:53;;;;;;;5.47;4.32;;;21.40;60.00;;;;;;4814999;29;20232;-87
2023/07/06 03:08:23;;;;;;;4.68;4.10;;;21.40;60.00;;;;;;4816483;29;20198;-87
2023/07/06 03:10:55;;;;;;;5.30;4.50;;;21.40;59.90;;;;;;4785311;29;20602;-87
2023/07/06 03:13:21;;;;;;;4.75;4.13;;;21.40;59.90;;;;;;4815366;29;20191;-87
2023/07/06 03:15:50;;;;;;;5.55;4.30;;;21.40;59.90;;;;;;4815850;29;20159;-87
2023/07/06 03:18:18;;;;;;;5.40;4.57;;;21.40;59.90;;;;;;4815856;29;20167;-85
2023/07/06 03:20:46;;;;;;;4.88;3.92;;;21.30;59.90;;;;;;4800797;29;20731;-87
2023/07/06 03:23:12;;;;;;;4.93;4.28;;;21.40;59.90;;;;;;4816224;29;20255;-86
2023/07/06 03:25:43;;;;;;;4.80;4.07;;;21.30;59.90;;;;;;4815422;29;20175;-86
2023/07/06 03:28:09;;;;;;;4.88;3.85;;;21.40;59.90;;;;;;4784373;29;20205;-86
2023/07/06 03:30:35;;;;;;;5.13;4.13;;;21.40;59.90;;;;;;4814624;29;20199;-87
2023/07/06 03:33:01;;;;;;;4.97;4.45;;;21.40;59.90;;;;;;4814511;29;20159;-86
2023/07/06 03:35:29;;;;;;;5.13;4.47;;;21.40;59.80;;;;;;4800202;29;20186;-86
2023/07/06 03:37:58;;;;;;;5.35;4.43;;;21.40;59.80;;;;;;4800159;29;20179;-86
2023/07/06 03:40:29;;;;;;;4.95;4.45;;;21.40;59.90;;;;;;4815248;29;20219;-86
2023/07/06 03:43:01;;;;;;;5.05;4.40;;;21.40;59.90;;;;;;4800002;29;20238;-86
2023/07/06 03:45:34;;;;;;;5.30;4.25;;;21.40;59.90;;;;;;4798655;29;20297;-85
2023/07/06 03:48:00;;;;;;;4.47;3.97;;;21.40;59.90;;;;;;4812999;29;20545;-86
2023/07/06 03:50:31;;;;;;;5.55;4.55;;;21.40;59.80;;;;;;4815140;29;20239;-87
2023/07/06 03:52:58;;;;;;;4.97;4.47;;;21.40;59.90;;;;;;4798814;29;20191;-87
2023/07/06 03:55:24;;;;;;;5.15;4.15;;;21.40;59.90;;;;;;4799055;29;20178;-87
2023/07/06 03:57:50;;;;;;;5.07;3.92;;;21.50;59.90;;;;;;4798372;29;20606;-86
2023/07/06 04:00:19;;;;;;;5.03;4.20;;;21.30;59.80;;;;;;4813492;29;20202;-86
2023/07/06 04:02:48;;;;;;;4.43;4.03;;;21.40;59.80;;;;;;4813682;29;20163;-86
2023/07/06 04:05:17;;;;;;;5.00;4.45;;;21.50;60.80;;;;;;4813759;29;20163;-87
2023/07/06 04:07:52;;;;;;;4.90;4.15;;;21.40;59.80;;;;;;4813901;29;20190;-87
2023/07/06 04:10:22;;;;;;;4.95;4.13;;;21.40;59.80;;;;;;4812269;29;20581;-86
2023/07/06 04:12:49;;;;;;;4.80;4.18;;;21.50;59.90;;;;;;4813167;29;20186;-87
2023/07/06 04:15:17;;;;;;;5.25;4.20;;;21.40;59.90;;;;;;4814309;29;20254;-86
2023/07/06 04:17:44;;;;;;;5.28;4.25;;;21.30;59.80;;;;;;4814261;29;20190;-86
2023/07/06 04:20:19;;;;;;;4.60;4.18;;;21.40;59.90;;;;;;4814643;29;20191;-87
2023/07/06 04:22:46;;;;;;;4.80;4.22;;;21.40;59.90;;;;;;4797577;29;20234;-87
2023/07/06 04:25:19;;;;;;;5.55;4.60;;;21.40;59.90;;;;;;4798080;29;20178;-87
2023/07/06 04:27:46;;;;;;;4.93;4.32;;;21.40;59.90;;;;;;4797303;29;20194;-87
2023/07/06 04:30:17;;;;;;;5.10;4.20;;;21.50;59.90;;;;;;4797464;29;20211;-86
2023/07/06 04:32:48;;;;;;;4.68;3.88;;;21.40;59.90;;;;;;4797390;29;20197;-87
2023/07/06 04:35:22;;;;;;;4.47;4.00;;;21.40;59.90;;;;;;4813158;29;20151;-87
2023/07/06 04:37:52;;;;;;;4.80;4.13;;;21.40;59.90;;;;;;4797973;29;20186;-87
2023/07/06 04:40:19;;;;;;;4.90;3.92;;;21.40;59.90;;;;;;4798076;29;20190;-87
2023/07/06 04:42:52;;;;;;;4.47;4.05;;;21.40;59.90;;;;;;4814546;29;20714;-87
2023/07/06 04:45:24;;;;;;;4.75;3.83;;;21.40;60.00;;;;;;4811856;29;20593;-87
2023/07/06 04:47:56;;;;;;;4.30;3.90;;;21.40;59.90;;;;;;4783000;29;20551;-86
2023/07/06 04:50:23;;;;;;;5.63;3.90;;;21.40;59.90;;;;;;4797823;29;20214;-86
2023/07/06 04:52:53;;;;;;;4.97;4.38;;;21.40;59.80;;;;;;4797878;29;20556;-86
2023/07/06 04:55:24;;;;;;;4.68;4.15;;;21.50;60.00;;;;;;4813217;29;20166;-86
2023/07/06 04:57:56;;;;;;;4.72;3.90;;;21.40;59.90;;;;;;4796873;29;20187;-87
2023/07/06 05:00:26;;;;;;;4.10;3.70;;;21.40;59.90;;;;;;4812542;29;20194;-86
2023/07/06 05:02:58;;;;;;;4.82;4.28;;;21.50;60.10;;;;;;4797869;29;20175;-87
2023/07/06 05:05:39;;;;;;;4.72;3.78;;;21.40;59.90;;;;;;4797714;29;20694;-86
2023/07/06 05:08:15;;;;;;;4.53;3.97;;;21.40;60.00;;;;;;4811855;29;20194;-86
2023/07/06 05:10:48;;;;;;;4.60;4.10;;;21.40;60.00;;;;;;4796292;29;20243;-86
2023/07/06 05:13:15;;;;;;;4.38;3.95;;;21.40;60.00;;;;;;4783403;29;20655;-88
2023/07/06 05:15:41;;;;;;;4.47;4.00;;;21.40;59.90;;;;;;4813530;29;20242;-87
2023/07/06 05:18:11;;;;;;;4.30;3.63;;;21.40;60.00;;;;;;4797984;29;20177;-85
2023/07/06 05:20:42;;;;;;;4.20;3.78;;;21.40;60.10;;;;;;4812648;29;20226;-87
2023/07/06 05:23:08;;;;;;;4.35;3.90;;;21.40;60.00;;;;;;4811546;29;20269;-86
2023/07/06 05:25:36;;;;;;;5.05;4.35;;;21.40;60.00;;;;;;4813532;29;20171;-86
2023/07/06 05:28:11;;;;;;;4.43;4.00;;;21.50;60.00;;;;;;4813544;29;20166;-87
2023/07/06 05:30:38;;;;;;;4.60;4.10;;;21.40;60.00;;;;;;4813279;29;20769;-86
2023/07/06 05:33:05;;;;;;;4.70;3.75;;;21.40;61.00;;;;;;4813882;29;20182;-87
2023/07/06 05:35:32;;;;;;;4.70;3.95;;;21.30;60.10;;;;;;4811878;29;20159;-86
2023/07/06 05:38:03;;;;;;;4.30;3.90;;;21.40;60.10;;;;;;4813645;29;20155;-85
2023/07/06 05:40:29;;;;;;;4.00;3.55;;;21.30;60.20;;;;;;4797681;29;20205;-87
2023/07/06 05:43:01;;;;;;;4.25;3.85;;;21.30;60.80;;;;;;4799253;29;20190;-87
2023/07/06 05:45:31;;;;;;;3.55;3.25;;;21.30;61.30;;;;;;4797727;29;20214;-88
2023/07/06 05:48:01;;;;;;;3.90;3.40;;;21.20;62.00;;;;;;4797902;29;20194;-87
2023/07/06 05:50:30;;;;;;;3.92;3.53;;;21.00;62.50;;;;;;4813467;29;20246;-89
2023/07/06 05:52:56;;;;;;;4.00;3.60;;;21.00;63.00;;;;;;4798282;29;20263;-87
2023/07/06 05:55:28;;;;;;;3.53;3.22;;;20.90;63.20;;;;;;4814439;29;20619;-87
2023/07/06 05:57:54;;;;;;;3.78;3.30;;;20.80;63.60;;;;;;4797415;29;20528;-86
2023/07/06 06:00:24;;;;;;;3.22;2.92;;;20.80;64.10;;;;;;4798452;29;20189;-86
2023/07/06 06:02:51;;;;;;;3.47;3.08;;;20.80;64.50;;;;;;4797466;29;20664;-86
2023/07/06 06:05:16;;;;;;;3.53;3.00;;;20.70;64.50;;;;;;4798376;29;20187;-87
2023/07/06 06:07:44;;;;;;;3.13;2.83;;;20.70;65.00;;;;;;4813046;29;20167;-86
2023/07/06 06:10:10;;;;;;;3.75;3.10;;;20.70;65.20;;;;;;4813281;29;20194;-87
2023/07/06 06:12:42;;;;;;;3.03;2.72;;;20.70;65.00;;;;;;4815097;29;20692;-85
2023/07/06 06:15:14;;;;;;;3.20;2.80;;;20.70;65.40;;;;;;4801950;29;20207;-85
2023/07/06 06:17:40;;;;;;;3.17;2.88;;;20.70;65.60;;;;;;4801624;29;20206;-86
2023/07/06 06:20:10;;;;;;;3.35;2.97;;;20.70;65.80;;;;;;4801299;29;20189;-86
2023/07/06 06:22:37;;;;;;;3.28;2.78;;;20.60;66.00;;;;;;4782842;30;20233;-86
2023/07/06 06:25:03;;;;;;;3.10;2.80;;;20.60;66.10;;;;;;4784931;30;20178;-85
2023/07/06 06:27:29;;;;;;;3.10;2.80;;;20.60;66.20;;;;;;4784399;30;20267;-86
2023/07/06 06:29:58;;;;;;;2.72;2.53;;;20.60;66.30;;;;;;4800053;30;20198;-85
2023/07/06 06:32:29;;;;;;;2.95;2.53;;;20.60;66.60;;;;;;4800972;30;20160;-85
2023/07/06 06:35:03;;;;;;;3.10;2.80;;;20.60;66.90;;;;;;4784126;30;20220;-85
2023/07/06 06:37:33;;;;;;;3.00;2.70;;;20.60;66.80;;;;;;4766708;30;20199;-84
2023/07/06 06:39:59;;;;;;;2.90;2.60;;;20.70;67.10;;;;;;4766552;30;20655;-86
2023/07/06 06:42:28;;;;;;;2.88;2.65;;;20.70;67.20;;;;;;4781720;30;20190;-89
2023/07/06 06:44:57;;;;;;;2.83;2.55;;;20.60;67.50;;;;;;4773707;30;20192;-84
2023/07/06 06:47:23;;;;;;;2.58;2.38;;;20.70;67.50;;;;;;4774025;30;20197;-84
2023/07/06 06:49:49;;;;;;;3.10;2.80;;;20.60;67.90;;;;;;4770865;30;20840;-87
2023/07/06 06:52:16;;;;;;;2.72;2.40;;;20.60;67.80;;;;;;4762182;30;20210;-84
2023/07/06 06:54:42;;;;;;;3.17;2.88;;;20.60;68.00;;;;;;4778525;30;20548;-84
2023/07/06 06:57:08;;;;;;;3.08;2.80;;;20.60;68.30;;;;;;4764360;30;20191;-84
2023/07/06 06:59:39;;;;;;;2.90;2.60;;;20.70;68.60;;;;;;4778795;30;20335;-85
2023/07/06 07:02:10;;;;;;;2.80;2.60;;;20.70;68.40;;;;;;4763521;30;20192;-85
2023/07/06 07:04:38;;;;;;;3.17;2.88;;;20.70;68.90;;;;;;4763722;30;20188;-84
2023/07/06 07:07:09;;;;;;;3.25;2.90;;;20.70;68.90;;;;;;4763050;30;20203;-84
2023/07/06 07:09:39;;;;;;;2.75;2.55;;;20.70;69.10;;;;;;4776976;30;20195;-87
2023/07/06 07:12:09;;;;;;;3.00;2.70;;;20.70;69.50;;;;;;4761630;30;20229;-86
2023/07/06 07:14:38;;;;;;;3.47;2.85;;;20.60;69.80;;;;;;4745887;30;20278;-85
2023/07/06 07:17:07;;;;;;;3.10;2.80;;;20.60;70.50;;;;;;4762392;30;20218;-85
2023/07/06 07:19:34;;;;;;;3.10;2.80;;;20.70;70.50;;;;;;4792999;30;20152;-86
2023/07/06 07:22:02;;;;;;;3.17;2.80;;;20.70;70.90;;;;;;4794707;29;20170;-85
2023/07/06 07:24:30;;;;;;;3.17;2.88;;;20.70;71.00;;;;;;4808407;29;20426;-85
2023/07/06 07:26:57;;;;;;;3.22;2.92;;;20.70;71.20;;;;;;4792367;30;20176;-85
2023/07/06 07:29:23;;;;;;;3.65;2.97;;;20.80;71.10;;;;;;4807314;29;20162;-84
2023/07/06 07:31:50;;;;;;;3.70;3.15;;;20.80;71.00;;;;;;4808411;29;20210;-83
2023/07/06 07:34:17;;;;;;;3.30;3.00;;;20.80;71.40;;;;;;4806845;29;20174;-85
2023/07/06 07:36:47;;;;;;;3.30;3.00;;;20.70;71.60;;;;;;4804591;29;20192;-86
2023/07/06 07:39:17;;;;;;;3.28;2.95;;;20.80;71.80;;;;;;4790992;30;20191;-84
2023/07/06 07:41:45;;;;;;;3.15;2.85;;;20.80;71.80;;;;;;4790061;30;20195;-86
2023/07/06 07:44:15;;;;;;;4.20;3.30;;;20.80;71.90;;;;;;4789204;30;20266;-84
2023/07/06 07:46:45;;;;;;;3.63;3.30;;;20.80;72.00;;;;;;4788768;30;20215;-85
2023/07/06 07:49:11;;;;;;;3.80;3.40;;;20.80;72.10;;;;;;4789001;30;20195;-87
2023/07/06 07:51:41;;;;;;;3.60;3.30;;;20.80;72.10;;;;;;4808726;29;20198;-85
2023/07/06 07:54:10;;;;;;;4.15;3.75;;;20.90;71.80;;;;;;4806503;29;20191;-86
2023/07/06 07:56:42;;;;;;;4.22;3.67;;;21.00;71.60;;;;;;4807035;29;20228;-85
2023/07/06 07:59:09;;;;;;;4.00;3.60;;;21.00;71.50;;;;;;4790980;30;20219;-85
2023/07/06 08:01:39;;;;;;;3.97;3.58;;;21.10;71.40;;;;;;4795026;29;20235;-86
2023/07/06 08:04:05;;;;;;;3.97;3.58;;;21.20;71.10;;;;;;4791520;30;20264;-86
2023/07/06 08:06:31;;;;;;;4.13;3.72;;;21.20;71.00;;;;;;4807848;29;20211;-84
2023/07/06 08:09:03;;;;;;;4.30;3.90;;;21.20;71.20;;;;;;4807061;29;20203;-88
2023/07/06 08:11:36;;;;;;;4.85;4.07;;;21.10;71.10;;;;;;4804041;29;20227;-85
2023/07/06 08:14:04;;;;;;;4.13;3.72;;;21.10;71.30;;;;;;4807446;29;20188;-87
2023/07/06 08:16:34;;;;;;;4.10;3.70;;;21.00;71.40;;;;;;4810994;29;20176;-87
2023/07/06 08:19:02;;;;;;;4.22;3.55;;;21.00;71.60;;;;;;4807852;29;20212;-86
2023/07/06 08:21:32;;;;;;;4.28;3.85;;;21.00;71.70;;;;;;4808141;29;20164;-86
2023/07/06 08:23:59;;;;;;;4.57;3.80;;;21.00;71.70;;;;;;4804156;29;20330;-86
2023/07/06 08:26:25;;;;;;;4.43;4.00;;;21.00;71.60;;;;;;4787013;30;20180;-85
2023/07/06 08:28:55;;;;;;;4.97;4.18;;;21.00;71.50;;;;;;4803592;29;20294;-86
2023/07/06 08:31:21;;;;;;;4.30;3.90;;;21.00;71.40;;;;;;4802117;29;20272;-86
2023/07/06 08:33:47;;;;;;;4.10;3.65;;;21.10;71.20;;;;;;4802395;29;20168;-85
2023/07/06 08:36:14;;;;;;;4.13;3.75;;;21.20;70.90;;;;;;4787774;30;20263;-86
2023/07/06 08:38:43;;;;;;;4.18;3.78;;;21.30;70.30;;;;;;4802875;29;20623;-86
2023/07/06 08:41:30;;;;;;;4.20;3.67;;;21.30;69.80;;;;;;4789988;29;20164;-86
2023/07/06 08:43:59;;;;;;;3.60;3.30;;;21.30;69.90;;;;;;4788322;30;20230;-85
2023/07/06 08:46:28;;;;;;;4.35;3.95;;;21.20;69.80;;;;;;4787630;30;20205;-86
2023/07/06 08:48:54;;;;;;;4.10;3.70;;;21.30;69.80;;;;;;4803196;29;20167;-85
2023/07/06 08:51:27;;;;;;;5.07;3.72;;;21.20;69.90;;;;;;4802926;29;20311;-85
2023/07/06 08:53:55;;;;;;;4.60;3.55;;;21.10;70.00;;;;;;4801739;29;20218;-86
2023/07/06 08:56:22;;;;;;;4.63;4.10;;;21.20;69.90;;;;;;4803930;29;20205;-86
2023/07/06 08:58:48;;;;;;;4.43;3.72;;;21.10;70.10;;;;;;4789362;29;20156;-85
2023/07/06 09:01:16;;;;;;;4.13;3.60;;;21.20;70.00;;;;;;4802664;29;20320;-86
2023/07/06 09:04:00;;;;;;;4.13;3.72;;;21.30;69.30;;;;;;4788260;30;20316;-86
2023/07/06 09:06:27;;;;;;;3.90;3.50;;;21.30;69.30;;;;;;4802955;29;20168;-85
2023/07/06 09:09:01;;;;;;;4.18;3.65;;;21.30;68.50;;;;;;4802402;29;20175;-86
2023/07/06 09:11:31;;;;;;;3.92;3.45;;;21.30;68.10;;;;;;4801931;29;20221;-87
2023/07/06 09:13:58;;;;;;;3.72;3.38;;;21.40;67.80;;;;;;4789819;30;20541;-86
2023/07/06 09:16:28;;;;;;;3.60;3.30;;;21.40;67.60;;;;;;4790586;30;20224;-86
2023/07/06 09:18:54;;;;;;;4.00;3.60;;;21.40;67.50;;;;;;4774802;30;20194;-86
2023/07/06 09:21:25;;;;;;;4.18;3.50;;;21.40;67.40;;;;;;4805408;29;20179;-86
2023/07/06 09:23:51;;;;;;;4.10;3.55;;;21.40;66.90;;;;;;4808099;29;20230;-87
2023/07/06 09:26:33;;;;;;;4.22;2.95;;;21.30;67.20;;;;;;4793608;29;20184;-86
2023/07/06 09:29:19;;;;;;;3.50;2.95;;;21.40;66.60;;;;;;4809256;29;20273;-87
2023/07/06 09:31:46;;;;;;;3.50;3.20;;;21.40;66.60;;;;;;4808732;29;20190;-86
2023/07/06 09:34:32;;;;;;;3.08;2.78;;;21.40;66.10;;;;;;4808392;29;20213;-86
2023/07/06 09:36:59;;;;;;;3.22;2.92;;;21.50;65.90;;;;;;4808305;29;20171;-88
2023/07/06 09:39:25;;;;;;;4.07;2.95;;;21.50;65.90;;;;;;4793143;29;20179;-86
2023/07/06 09:41:51;;;;;;;3.47;3.17;;;21.50;65.90;;;;;;4808207;29;20171;-86
2023/07/06 09:44:30;;;;;;;3.00;2.70;;;21.50;65.60;;;;;;4808386;29;20167;-86
2023/07/06 09:46:57;;;;;;;5.55;2.80;;;21.50;65.40;;;;;;4808267;29;20167;-86
2023/07/06 09:49:38;;;;;;;3.58;2.97;;;21.50;65.00;;;;;;4809334;29;20179;-86
2023/07/06 09:52:09;;;;;;;2.90;2.60;;;21.60;65.20;;;;;;4793188;29;20182;-86
2023/07/06 09:54:40;;;;;;;3.88;3.13;;;21.60;64.70;;;;;;4808173;29;20163;-88
2023/07/06 09:57:15;;;;;;;3.53;3.00;;;21.60;64.90;;;;;;4807299;29;20608;-85
2023/07/06 09:59:44;;;;;;;5.70;3.30;;;21.50;65.10;;;;;;4791594;29;20190;-86
2023/07/06 10:02:24;;;;;;;4.18;2.90;;;21.50;65.40;;;;;;4806911;29;20163;-85
2023/07/06 10:04:56;;;;;;;4.05;3.10;;;21.50;65.40;;;;;;4808591;29;20203;-86
2023/07/06 10:07:46;;;;;;;3.47;2.72;;;21.40;65.80;;;;;;4807422;29;20155;-86
2023/07/06 10:10:20;;;;;;;3.30;2.83;;;21.30;65.80;;;;;;4807414;29;20195;-86
2023/07/06 10:12:53;;;;;;;4.43;2.83;;;21.40;65.50;;;;;;4792291;29;20171;-85
2023/07/06 10:15:51;;;;;;;4.35;2.95;;;21.40;65.60;;;;;;4809191;29;20661;-87
2023/07/06 10:18:21;;;;;;;3.13;2.83;;;21.40;65.40;;;;;;4807916;29;20279;-86
2023/07/06 10:20:54;;;;;;;3.00;2.53;;;21.50;65.00;;;;;;4792274;29;20314;-87
2023/07/06 10:23:35;;;;;;;3.08;2.78;;;21.40;65.30;;;;;;4791060;29;20263;-88
2023/07/06 10:26:29;;;;;;;2.95;2.70;;;21.40;65.20;;;;;;4808755;29;20211;-87
2023/07/06 10:29:05;;;;;;;3.40;3.10;;;21.30;65.60;;;;;;4808168;29;20639;-87
2023/07/06 10:31:42;;;;;;;3.33;2.60;;;21.30;65.50;;;;;;4791980;29;20678;-86
2023/07/06 10:34:27;;;;;;;2.63;2.35;;;21.30;65.20;;;;;;4807240;29;20516;-87
2023/07/06 10:36:53;;;;;;;2.70;2.50;;;21.50;64.40;;;;;;4808366;29;20170;-85
2023/07/06 10:39:58;;;;;;;2.70;2.50;;;21.60;64.10;;;;;;4807427;29;20247;-86
2023/07/06 10:42:28;;;;;;;3.88;2.65;;;21.60;64.10;;;;;;4807098;29;20665;-87
2023/07/06 10:44:58;;;;;;;4.22;2.90;;;21.60;64.00;;;;;;4806712;29;20167;-88
2023/07/06 10:47:40;;;;;;;3.00;2.30;;;21.60;63.80;;;;;;4807143;29;20163;-88
2023/07/06 10:50:23;;;;;;;2.88;2.58;;;21.70;64.30;;;;;;4807660;29;20193;-87
2023/07/06 10:53:01;;;;;;;2.60;2.40;;;21.60;63.50;;;;;;4806852;29;20171;-85
2023/07/06 10:55:35;;;;;;;3.10;2.65;;;21.70;63.10;;;;;;4792492;29;20170;-86
2023/07/06 10:58:14;;;;;;;2.67;2.17;;;21.80;62.70;;;;;;4808258;29;20537;-86
2023/07/06 11:00:42;;;;;;;2.22;2.00;;;21.80;62.70;;;;;;4794217;29;20619;-86
2023/07/06 11:03:16;;;;;;;2.80;2.05;;;21.70;62.40;;;;;;4808104;29;20543;-87
2023/07/06 11:06:06;;;;;;;2.28;2.08;;;21.80;62.40;;;;;;4776481;29;20195;-85
2023/07/06 11:09:01;;;;;;;2.38;2.17;;;21.70;62.80;;;;;;4806793;29;20167;-85
2023/07/06 11:11:33;;;;;;;4.10;2.38;;;21.80;62.60;;;;;;4806556;29;20194;-85
2023/07/06 11:14:19;;;;;;;3.90;2.40;;;21.70;62.70;;;;;;4805958;29;20210;-86
2023/07/06 11:16:57;;;;;;;2.92;2.63;;;21.70;62.90;;;;;;4776460;29;20532;-87
2023/07/06 11:19:26;;;;;;;2.20;2.00;;;21.70;62.70;;;;;;4791741;29;20216;-87
2023/07/06 11:21:54;;;;;;;3.22;2.40;;;21.70;62.70;;;;;;4793048;29;20171;-87
2023/07/06 11:24:26;;;;;;;2.55;2.22;;;21.80;62.80;;;;;;4810666;29;20227;-87
2023/07/06 11:26:55;;;;;;;2.13;1.90;;;21.60;62.90;;;;;;4793235;29;20238;-88
2023/07/06 11:29:24;;;;;;;1.80;1.70;;;21.60;62.60;;;;;;4791743;29;20186;-86
2023/07/06 11:32:00;;;;;;;3.17;2.40;;;21.60;62.30;;;;;;4806853;29;20244;-86
2023/07/06 11:34:56;;;;;;;3.38;2.10;;;21.70;62.40;;;;;;4806733;29;20535;-87
2023/07/06 11:37:50;;;;;;;2.42;2.22;;;21.80;62.00;;;;;;4807781;29;20174;-87
2023/07/06 11:40:35;;;;;;;3.65;2.10;;;21.80;62.00;;;;;;4806404;29;20183;-88
2023/07/06 11:43:26;;;;;;;2.38;2.17;;;21.90;61.90;;;;;;4807281;29;20167;-86
2023/07/06 11:46:31;;;;;;;2.70;2.50;;;21.70;61.90;;;;;;4806769;29;20519;-87
2023/07/06 11:49:32;;;;;;;2.63;2.30;;;21.70;62.10;;;;;;4807506;29;20198;-85
2023/07/06 11:52:05;;;;;;;2.88;2.10;;;21.60;62.70;;;;;;4796073;29;20749;-88
2023/07/06 11:57:43;;;;;;;2.88;2.40;;;21.50;62.90;;;;;;4807310;29;20155;-86
2023/07/06 12:00:17;;;;;;;2.40;2.20;;;21.40;63.20;;;;;;4790989;29;20619;-86
2023/07/06 12:02:57;;;;;;;2.50;2.30;;;21.40;63.20;;;;;;4793241;29;20190;-86
2023/07/06 12:05:26;;;;;;;2.50;2.15;;;21.40;63.40;;;;;;4809919;29;20178;-87
2023/07/06 12:07:56;;;;;;;2.20;2.00;;;21.20;63.40;;;;;;4793904;29;20199;-87
2023/07/06 12:10:22;;;;;;;2.40;2.20;;;21.30;63.40;;;;;;4807952;29;20222;-85
2023/07/06 12:12:49;;;;;;;2.47;2.10;;;21.30;63.40;;;;;;4807562;29;20197;-86
2023/07/06 12:15:16;;;;;;;2.35;2.00;;;21.20;63.30;;;;;;4793467;29;20182;-85
2023/07/06 12:17:43;;;;;;;2.30;2.10;;;21.30;63.50;;;;;;4809778;29;20552;-86
2023/07/06 12:20:11;;;;;;;1.98;1.88;;;21.20;63.60;;;;;;4794694;29;20651;-85
2023/07/06 12:22:51;;;;;;;2.08;1.88;;;21.30;63.60;;;;;;4806872;29;20262;-84
2023/07/06 12:25:18;;;;;;;2.30;2.10;;;21.30;63.40;;;;;;4802447;29;20187;-84
2023/07/06 12:27:45;;;;;;;2.20;2.00;;;21.30;63.40;;;;;;4818867;29;20655;-85
2023/07/06 12:30:12;;;;;;;2.85;1.90;;;21.30;63.40;;;;;;4789925;29;20199;-85
2023/07/06 12:32:42;;;;;;;2.20;2.00;;;21.30;63.40;;;;;;4818204;29;20163;-85
2023/07/06 12:35:11;;;;;;;2.25;2.05;;;21.30;63.40;;;;;;4786712;30;20188;-85
2023/07/06 12:37:41;;;;;;;2.20;2.00;;;21.20;63.30;;;;;;4802349;29;20659;-85
2023/07/06 12:40:19;;;;;;;2.42;2.05;;;21.20;63.60;;;;;;4802545;29;20213;-82
2023/07/06 12:42:46;;;;;;;2.13;1.92;;;21.20;63.60;;;;;;4771325;30;20199;-85
2023/07/06 12:45:16;;;;;;;2.30;2.08;;;21.30;63.50;;;;;;4802512;29;20183;-83
2023/07/06 12:47:43;;;;;;;2.63;2.30;;;21.30;63.40;;;;;;4788332;29;20252;-83
2023/07/06 12:50:19;;;;;;;2.10;1.90;;;21.30;63.50;;;;;;4805632;29;20594;-85
2023/07/06 12:52:49;;;;;;;2.20;2.00;;;21.30;63.40;;;;;;4791024;29;20198;-84
2023/07/06 12:55:21;;;;;;;2.40;2.20;;;21.30;63.20;;;;;;4791132;30;20214;-86
2023/07/06 12:57:53;;;;;;;2.50;2.03;;;21.30;63.30;;;;;;4791173;30;20735;-83
2023/07/06 13:00:27;;;;;;;2.17;1.98;;;21.30;63.40;;;;;;4790759;30;20226;-86
2023/07/06 13:02:58;;;;;;;1.80;1.70;;;21.30;63.40;;;;;;4805972;29;20198;-82
2023/07/06 13:05:31;;;;;;;2.10;1.90;;;21.30;63.40;;;;;;4806308;29;20201;-87
2023/07/06 13:08:08;;;;;;;2.67;2.13;;;21.30;63.30;;;;;;4791532;30;20735;-85
2023/07/06 13:10:38;;;;;;;2.30;2.10;;;21.20;63.30;;;;;;4796565;30;20727;-88
2023/07/06 13:13:17;;;;;;;2.38;2.17;;;21.20;63.30;;;;;;4794390;30;20195;-91